createdAt,value
2018-07-30T00:07:03.001Z,38.26
2018-07-30T00:17:06.068Z,38.16
2018-07-30T00:27:09.187Z,38.25
2018-07-30T00:37:12.366Z,37.93
2018-07-30T00:47:15.521Z,37.89
2018-07-30T00:57:18.778Z,38.41
2018-07-30T01:07:21.814Z,38.93
2018-07-30T01:17:24.911Z,38.64
2018-07-30T01:27:28.034Z,37.91
2018-07-30T01:37:32.007Z,38.38
2018-07-30T01:47:35.157Z,39.15
2018-07-30T01:57:38.305Z,39.10
2018-07-30T02:07:42.333Z,39.04
2018-07-30T02:17:45.629Z,39.35
2018-07-30T02:27:49.023Z,38.31
2018-07-30T02:37:52.912Z,39.27
2018-07-30T02:47:56.789Z,39.04
2018-07-30T02:57:59.777Z,39.10
2018-07-30T03:08:02.961Z,39.22
2018-07-30T03:18:07.017Z,39.15
2018-07-30T03:28:10.009Z,39.37
2018-07-30T03:38:12.544Z,38.24
2018-07-30T03:48:14.985Z,39.61
2018-07-30T03:58:17.709Z,38.45
2018-07-30T04:08:21.361Z,38.66
2018-07-30T04:18:23.801Z,41.21
2018-07-30T04:28:26.344Z,41.95
2018-07-30T04:38:28.848Z,42.15
2018-07-30T04:48:32.265Z,43.36
2018-07-30T04:58:34.799Z,42.70
2018-07-30T05:08:38.011Z,43.11
2018-07-30T05:18:41.241Z,41.52
2018-07-30T05:28:43.793Z,40.54
2018-07-30T05:38:46.298Z,39.38
2018-07-30T05:48:49.310Z,38.63
2018-07-30T05:58:51.797Z,40.60
2018-07-30T06:08:55.593Z,43.87
2018-07-30T06:18:58.831Z,43.29
2018-07-30T06:29:01.839Z,42.12
2018-07-30T06:39:07.947Z,43.94
2018-07-30T06:49:12.824Z,43.59
2018-07-30T06:59:19.695Z,42.73
2018-07-30T07:09:22.881Z,42.84
2018-07-30T07:19:27.134Z,40.80
2018-07-30T07:29:30.730Z,41.22
2018-07-30T07:39:33.944Z,41.98
2018-07-30T07:49:37.190Z,40.76
2018-07-30T07:59:41.222Z,41.70
2018-07-30T08:09:44.404Z,39.66
2018-07-30T08:19:47.401Z,41.94
2018-07-30T08:29:50.468Z,40.49
2018-07-30T08:39:53.476Z,39.69
2018-07-30T08:49:56.510Z,41.00
2018-07-30T08:59:59.733Z,41.04
2018-07-30T09:10:02.732Z,39.96
2018-07-30T09:20:05.966Z,40.21
2018-07-30T09:30:08.989Z,40.11
2018-07-30T09:40:12.151Z,40.67
2018-07-30T09:50:15.277Z,39.35
2018-07-30T10:00:22.660Z,39.72
2018-07-30T10:10:25.788Z,39.54
2018-07-30T10:20:28.777Z,37.63
2018-07-30T10:30:31.236Z,40.51
2018-07-30T10:40:33.588Z,40.27
2018-07-30T10:50:36.058Z,39.57
2018-07-30T11:00:38.378Z,39.84
2018-07-30T11:18:22.341Z,39.23
2018-07-30T11:38:37.633Z,40.56
2018-07-30T11:48:40.019Z,36.90
2018-07-30T11:58:42.474Z,37.46
2018-07-30T12:08:44.928Z,37.84
2018-07-30T12:18:47.311Z,37.46
2018-07-30T12:28:49.649Z,37.22
2018-07-30T12:38:52.025Z,37.94
2018-07-30T12:48:54.468Z,37.50
2018-07-30T12:58:56.793Z,36.93
2018-07-30T13:10:09.653Z,36.56
2018-07-30T13:20:12.808Z,38.91
2018-07-30T13:30:15.914Z,37.26
2018-07-30T13:40:18.872Z,37.62
2018-07-30T13:50:21.989Z,35.51
2018-07-30T14:00:24.953Z,35.76
2018-07-30T14:10:28.069Z,35.50
2018-07-30T14:20:31.021Z,36.32
2018-07-30T14:30:34.134Z,35.76
2018-07-30T14:40:37.094Z,38.37
2018-07-30T14:50:40.374Z,38.71
2018-07-30T15:00:43.432Z,36.77
2018-07-30T15:10:46.504Z,37.01
2018-07-30T15:20:49.444Z,37.88
2018-07-30T15:30:52.388Z,37.47
2018-07-30T15:40:55.518Z,38.49
2018-07-30T15:50:58.488Z,36.91
2018-07-30T16:01:01.629Z,38.33
2018-07-30T16:11:04.069Z,37.87
2018-07-30T16:21:07.089Z,37.11
2018-07-30T16:31:10.203Z,36.92
2018-07-30T16:41:13.152Z,37.82
2018-07-30T16:51:16.301Z,37.32
2018-07-30T17:01:19.458Z,36.94
2018-07-30T17:11:22.576Z,38.06
2018-07-30T17:21:25.723Z,37.32
2018-07-30T17:31:28.850Z,36.98
2018-07-30T17:41:31.995Z,37.85
2018-07-30T17:51:35.111Z,38.33
2018-07-30T18:01:37.544Z,37.88
2018-07-30T18:11:39.887Z,37.79
2018-07-30T18:21:42.221Z,37.11
2018-07-30T18:31:44.525Z,36.28
2018-07-30T18:41:46.845Z,39.36
2018-07-30T18:51:49.184Z,36.94
2018-07-30T19:01:51.572Z,37.01
2018-07-30T19:11:54.064Z,36.56
2018-07-30T19:21:56.589Z,35.50
2018-07-30T19:31:59.072Z,36.16
2018-07-30T19:42:01.392Z,36.67
2018-07-30T19:52:03.810Z,35.42
2018-07-30T20:02:06.226Z,35.87
2018-07-30T20:12:08.625Z,36.36
2018-07-30T20:22:11.084Z,36.00
2018-07-30T20:32:13.420Z,36.33
2018-07-30T20:42:15.756Z,34.82
2018-07-30T20:52:18.251Z,35.50
2018-07-30T21:02:20.594Z,37.57
2018-07-30T21:12:23.113Z,37.34
2018-07-30T21:22:25.456Z,38.27
2018-07-30T21:32:27.935Z,37.77
2018-07-30T21:42:30.280Z,38.06
2018-07-30T21:52:32.669Z,38.23
2018-07-30T22:02:35.175Z,38.32
2018-07-30T22:12:37.728Z,38.86
2018-07-30T22:22:40.213Z,37.88
2018-07-30T22:32:42.681Z,38.34
2018-07-30T22:42:45.024Z,38.00
2018-07-30T22:52:47.346Z,39.08
2018-07-30T23:02:49.673Z,38.04
2018-07-30T23:12:52.203Z,38.17
2018-07-30T23:22:54.717Z,39.19
2018-07-30T23:32:57.041Z,38.32
2018-07-30T23:42:59.570Z,38.72
2018-07-30T23:53:02.106Z,38.41
